Airfield :







YOU CAN JOIN US ON...

 
LOGIN :

Register | Disclaimer

   EN    FR    IT 

 









Legend :    VFR   Marginal VFR   IFR   Intensive IFR   Very Intensive IFR
Visi :
Ceiling :
>= 8 km
>= 3000ft
5 to 8 km
1000 to 3000 ft
1500m to 5 km
500 to 1000 ft
800 to 1500m
200 to 500 ft
< 800m
< 200 ft
Symbols :   Thunderstorms  Fog  Heavy snow  Heavy precipitations  Wind > 20 kt






- Airport Elevation : 461 ft
- IATA code : YYT


CYYT - St John's Int

CURRENT METAR :
  • 250100Z 21017G26KT 190V250 15SM BKN023 16/13 A2959 RMK SC7 SLP025 DENSITY ALT 1100FT

EXPIRED METARs :
  • 250000Z 21017G25KT 15SM FEW100 16/13 A2959 RMK AC1 SLP022 DENSITY ALT 1100FT
  • 242300Z 20018G24KT 15SM FEW040 16/14 A2959 RMK SC2 SLP022 DENSITY ALT 1100FT

TAF TAF CYYT
Valid from the 25 at 00:00 until the 26 at 00:00 UTC


242340Z 2500/2524 20018G28KT P6SM BKN040
TEMPO 2500/2507 BKN020
FM250700 22015G25KT P6SM BKN025
FM251400 25012G22KT P6SM -SHRA BKN025 BKN060
BECMG 2514/2516 25015G25KT
FM252100 25018G28KT P6SM SCT040 RMK NXT FCST BY 250600Z
CZQX FIR / North America



MET'MAP, your aeronautical weather chart ! - Copyright ORBIFLY December 2007 - Disclaimer

ORBIFLY MET'MAP TEAM :

Programming & Development : Alexandra Zaïnal
Original concept : Baudouin d'Aumeries
Technical & hardware support : Manuel Goepfert
Assistance : Marc-Olivier Méhu




SOURCES & CREDITS :

   NOAA